Observation data for Memphis on 01/15/2019      Previous  Date  Next       Current Mesonet Observations  Soil Data  Daily Summary Page  Observations in Plain Language
KMES 150600Z 33000KT 00/M01 A3025 RMK A01 T00041008  RH  093%=      5-min Rain = 0
KMES 150605Z 34000KT 00/M01 A3025 RMK A01 T00031009  RH  092%=      5-min Rain = 0
KMES 150610Z 33002KT 00/01 A3024 RMK A01 T00000-12  RH  093%=      5-min Rain = 0
KMES 150615Z 34002KT 00/01 A3024 RMK A01 T00000-11  RH  093%=      5-min Rain = 0
KMES 150620Z 35002KT M00/M01 A3024 RMK A01 T10021013  RH  093%=      5-min Rain = 0
KMES 150625Z 02002KT M00/M02 A3024 RMK A01 T10041016  RH  093%=      5-min Rain = 0
KMES 150630Z 02002KT M01/M02 A3024 RMK A01 T10061017  RH  093%=      5-min Rain = 0
KMES 150635Z 01001KT M01/M02 A3024 RMK A01 T10061016  RH  094%=      5-min Rain = 0
KMES 150640Z 01002KT M00/M01 A3024 RMK A01 T10041014  RH  094%=      5-min Rain = 0
KMES 150645Z 01001KT M00/M01 A3024 RMK A01 T10021011  RH  094%=      5-min Rain = 0
KMES 150650Z 02000KT M00/M01 A3023 RMK A01 T10021011  RH  094%=      5-min Rain = 0
KMES 150655Z 00000KT M00/M01 A3023 RMK A01 T10031013  RH  094%=      5-min Rain = 0
KMES 150700Z 30001KT M01/M02 A3022 RMK A01 T10051015  RH  094%=      5-min Rain = 0
KMES 150705Z 30000KT M01/M02 A3022 RMK A01 T10061015  RH  094%=      5-min Rain = 0
KMES 150710Z 00000KT M01/M02 A3022 RMK A01 T10071017  RH  094%=      5-min Rain = 0
KMES 150715Z 31000KT M01/M02 A3023 RMK A01 T10091018  RH  094%=      5-min Rain = 0
KMES 150720Z 00000KT M01/M02 A3023 RMK A01 T10101019  RH  094%=      5-min Rain = 0
KMES 150725Z 00000KT M01/M02 A3023 RMK A01 T10101019  RH  095%=      5-min Rain = 0
KMES 150730Z 00000KT M01/M02 A3023 RMK A01 T10081017  RH  095%=      5-min Rain = 0
KMES 150735Z 06000KT M01/M02 A3023 RMK A01 T10111021  RH  094%=      5-min Rain = 0
KMES 150740Z 13000KT M01/M02 A3023 RMK A01 T10141022  RH  094%=      5-min Rain = 0
KMES 150745Z 00000KT M01/M02 A3022 RMK A01 T10141022  RH  095%=      5-min Rain = 0
KMES 150750Z 15000KT M01/M02 A3022 RMK A01 T10131020  RH  095%=      5-min Rain = 0
KMES 150755Z 16001KT M01/M02 A3023 RMK A01 T10121020  RH  095%=      5-min Rain = 0
KMES 150800Z 16001KT M01/M02 A3022 RMK A01 T10121020  RH  095%=      5-min Rain = 0
KMES 150805Z 16002KT M01/M02 A3022 RMK A01 T10121020  RH  095%=      5-min Rain = 0
KMES 150810Z 16002KT M01/M02 A3022 RMK A01 T10101017  RH  096%=      5-min Rain = 0
KMES 150815Z 14002KT M01/M02 A3023 RMK A01 T10101018  RH  095%=      5-min Rain = 0
KMES 150820Z 15002KT M01/M02 A3023 RMK A01 T10131022  RH  094%=      5-min Rain = 0
KMES 150825Z 15002KT M01/M02 A3023 RMK A01 T10141022  RH  095%=      5-min Rain = 0
KMES 150830Z 17003KT M01/M02 A3023 RMK A01 T10131020  RH  095%=      5-min Rain = 0
KMES 150835Z 17002KT M01/M02 A3023 RMK A01 T10131021  RH  095%=      5-min Rain = 0
KMES 150840Z 17003KT M01/M02 A3023 RMK A01 T10121019  RH  096%=      5-min Rain = 0
KMES 150845Z 15004KT M01/M02 A3023 RMK A01 T10111019  RH  095%=      5-min Rain = 0
KMES 150850Z 17003KT M01/M02 A3022 RMK A01 T10101016  RH  096%=      5-min Rain = 0
KMES 150855Z 18003KT M00/M01 A3022 RMK A01 T10021008  RH  097%=      5-min Rain = 0
KMES 150900Z 19001KT M00/M01 A3022 RMK A01 T10011008  RH  096%=      5-min Rain = 0
KMES 150905Z 15000KT M00/M01 A3022 RMK A01 T10021010  RH  095%=      5-min Rain = 0
KMES 150910Z 15001KT M01/M02 A3022 RMK A01 T10061015  RH  095%=      5-min Rain = 0
KMES 150915Z 18003KT M01/M01 A3022 RMK A01 T10061013  RH  096%=      5-min Rain = 0
KMES 150920Z 17002KT M01/M01 A3022 RMK A01 T10051012  RH  096%=      5-min Rain = 0
KMES 150925Z 17003KT M01/M02 A3022 RMK A01 T10091017  RH  095%=      5-min Rain = 0
KMES 150930Z 17004KT M01/M01 A3022 RMK A01 T10061012  RH  097%=      5-min Rain = 0
KMES 150935Z 16006KT M00/M01 A3022 RMK A01 T10041010  RH  096%=      5-min Rain = 0
KMES 150940Z 17004KT M00/M01 A3022 RMK A01 T10011007  RH  097%=      5-min Rain = 0
KMES 150945Z 17003KT 00/01 A3022 RMK A01 T000000-6  RH  096%=      5-min Rain = 0
KMES 150950Z 18003KT 00/M01 A3021 RMK A01 T00011005  RH  096%=      5-min Rain = 0
KMES 150955Z 18003KT 00/M00 A3021 RMK A01 T00021004  RH  097%=      5-min Rain = 0
KMES 151000Z 17003KT 00/M00 A3021 RMK A01 T00031004  RH  096%=      5-min Rain = 0
KMES 151005Z 17003KT 00/M00 A3021 RMK A01 T00041002  RH  097%=      5-min Rain = 0
KMES 151010Z 18003KT 01/M00 A3021 RMK A01 T00051002  RH  097%=      5-min Rain = 0
KMES 151015Z 19003KT 01/M00 A3021 RMK A01 T00051002  RH  096%=      5-min Rain = 0
KMES 151020Z 22002KT 00/M00 A3021 RMK A01 T00031003  RH  096%=      5-min Rain = 0
KMES 151025Z 22002KT 00/M00 A3021 RMK A01 T00031003  RH  097%=      5-min Rain = 0
KMES 151030Z 24002KT 00/M00 A3021 RMK A01 T00041002  RH  097%=      5-min Rain = 0
KMES 151035Z 24002KT 01/00 A3021 RMK A01 T000600-0  RH  097%=      5-min Rain = 0
KMES 151040Z 24002KT 01/00 A302 RMK A01 T00070001  RH  097%=      5-min Rain = 0
KMES 151045Z 26002KT 01/00 A302 RMK A01 T00070001  RH  097%=      5-min Rain = 0
KMES 151050Z 34003KT 01/M00 A302 RMK A01 T00051003  RH  096%=      5-min Rain = 0
KMES 151055Z 32003KT M00/M01 A302 RMK A01 T10021009  RH  096%=      5-min Rain = 0
KMES 151100Z 32002KT M00/M01 A302 RMK A01 T10011007  RH  097%=      5-min Rain = 0
KMES 151105Z 33003KT M00/M01 A302 RMK A01 T10031009  RH  097%=      5-min Rain = 0
KMES 151110Z 33003KT M00/M01 A302 RMK A01 T10041009  RH  097%=      5-min Rain = 0
KMES 151115Z 32003KT M00/M01 A302 RMK A01 T10041009  RH  097%=      5-min Rain = 0
KMES 151120Z 32003KT M00/M01 A302 RMK A01 T10031008  RH  097%=      5-min Rain = 0
KMES 151125Z 35002KT M01/M01 A302 RMK A01 T10051011  RH  097%=      5-min Rain = 0
KMES 151130Z 35002KT M01/M01 A302 RMK A01 T10071012  RH  097%=      5-min Rain = 0
KMES 151135Z 35001KT M01/M01 A302 RMK A01 T10081013  RH  097%=      5-min Rain = 0
KMES 151140Z 35000KT M01/M01 A302 RMK A01 T10091014  RH  097%=      5-min Rain = 0
KMES 151145Z 00000KT M01/M01 A302 RMK A01 T10081013  RH  097%=      5-min Rain = 0
KMES 151150Z 35000KT M01/M01 A302 RMK A01 T10081013  RH  097%=      5-min Rain = 0
KMES 151155Z 23000KT M01/M01 A302 RMK A01 T10081013  RH  097%=      5-min Rain = 0
KMES 151200Z 22000KT M01/M01 A302 RMK A01 T10081013  RH  098%=      5-min Rain = 0
KMES 151205Z 00000KT M01/M01 A302 RMK A01 T10091014  RH  097%=      5-min Rain = 0
KMES 151210Z 00000KT M01/M02 A3021 RMK A01 T10111016  RH  097%=      5-min Rain = 0
KMES 151215Z 14000KT M01/M02 A3021 RMK A01 T10101015  RH  098%=      5-min Rain = 0
KMES 151220Z 14000KT M01/M02 A302 RMK A01 T10101015  RH  098%=      5-min Rain = 0
KMES 151225Z 13001KT M01/M02 A302 RMK A01 T10121017  RH  097%=      5-min Rain = 0
KMES 151230Z 13001KT M01/M02 A302 RMK A01 T10121017  RH  098%=      5-min Rain = 0
KMES 151235Z 14000KT M01/M02 A3021 RMK A01 T10131018  RH  098%=      5-min Rain = 0
KMES 151240Z 16001KT M01/M02 A3021 RMK A01 T10121016  RH  098%=      5-min Rain = 0
KMES 151245Z 16001KT M01/M02 A3021 RMK A01 T10121016  RH  098%=      5-min Rain = 0
KMES 151250Z 17002KT M01/M02 A3021 RMK A01 T10121017  RH  098%=      5-min Rain = 0
KMES 151255Z 19001KT M01/M02 A3021 RMK A01 T10121016  RH  098%=      5-min Rain = 0
KMES 151300Z 19002KT M01/M02 A3021 RMK A01 T10121016  RH  098%=      5-min Rain = 0
KMES 151305Z 18002KT M01/M01 A3021 RMK A01 T10091013  RH  098%=      5-min Rain = 0
KMES 151310Z 18003KT M01/M01 A3021 RMK A01 T10081012  RH  098%=      5-min Rain = 0
KMES 151315Z 17003KT M01/M01 A3021 RMK A01 T10091013  RH  098%=      5-min Rain = 0
KMES 151320Z 17002KT M01/M02 A3021 RMK A01 T10111016  RH  097%=      5-min Rain = 0
KMES 151325Z 18001KT M02/M02 A3021 RMK A01 T10151020  RH  097%=      5-min Rain = 0
KMES 151330Z 18001KT M02/M02 A3021 RMK A01 T10171021  RH  098%=      5-min Rain = 0
KMES 151335Z 19001KT M02/M02 A3021 RMK A01 T10161020  RH  098%=      5-min Rain = 0
KMES 151340Z 19001KT M02/M02 A3021 RMK A01 T10151019  RH  098%=      5-min Rain = 0
KMES 151345Z 19000KT M02/M02 A3021 RMK A01 T10161020  RH  098%=      5-min Rain = 0
KMES 151350Z 19001KT M02/M02 A3021 RMK A01 T10171021  RH  098%=      5-min Rain = 0
KMES 151355Z 20001KT M02/M02 A3021 RMK A01 T10161019  RH  098%=      5-min Rain = 0
KMES 151400Z 20000KT M02/M02 A3021 RMK A01 T10151019  RH  098%=      5-min Rain = 0
KMES 151405Z 17000KT M02/M02 A3021 RMK A01 T10181022  RH  098%=      5-min Rain = 0
KMES 151410Z 21000KT M02/M02 A3021 RMK A01 T10191022  RH  098%=      5-min Rain = 0
KMES 151415Z 23001KT M02/M02 A3021 RMK A01 T10181021  RH  098%=      5-min Rain = 0
KMES 151420Z 28001KT M02/M02 A3022 RMK A01 T10161020  RH  099%=      5-min Rain = 0
KMES 151425Z 29001KT M01/M02 A3022 RMK A01 T10131016  RH  099%=      5-min Rain = 0
KMES 151430Z 23001KT M01/M01 A3022 RMK A01 T10091011  RH  099%=      5-min Rain = 0
KMES 151435Z 22000KT M01/M01 A3022 RMK A01 T10051008  RH  099%=      5-min Rain = 0
KMES 151440Z 00000KT M01/M01 A3022 RMK A01 T10061010  RH  098%=      5-min Rain = 0
KMES 151445Z 00000KT M01/M01 A3022 RMK A01 T10061010  RH  098%=      5-min Rain = 0
KMES 151450Z 13000KT M01/M01 A3022 RMK A01 T10051008  RH  098%=      5-min Rain = 0
KMES 151455Z 13001KT M00/M01 A3022 RMK A01 T10021006  RH  099%=      5-min Rain = 0
KMES 151500Z 14002KT 00/M00 A3022 RMK A01 T00011003  RH  099%=      5-min Rain = 0
KMES 151505Z 15003KT 01/00 A3022 RMK A01 T00060002  RH  099%=      5-min Rain = 0
KMES 151510Z 15003KT 01/01 A3022 RMK A01 T00100006  RH  099%=      5-min Rain = 0
KMES 151515Z 16002KT 01/01 A3022 RMK A01 T00140010  RH  099%=      5-min Rain = 0
KMES 151520Z 19000KT 02/01 A3022 RMK A01 T00180014  RH  098%=      5-min Rain = 0
KMES 151525Z 24000KT 02/02 A3022 RMK A01 T00220017  RH  098%=      5-min Rain = 0
KMES 151530Z 22001KT 03/02 A3022 RMK A01 T00260022  RH  098%=      5-min Rain = 0
KMES 151535Z 23003KT 03/02 A3022 RMK A01 T00300024  RH  098%=      5-min Rain = 0
KMES 151540Z 22001KT 03/03 A3022 RMK A01 T00330027  RH  097%=      5-min Rain = 0
KMES 151545Z 24002KT 04/03 A3022 RMK A01 T00350028  RH  097%=      5-min Rain = 0
KMES 151550Z 24002KT 04/03 A3021 RMK A01 T00370029  RH  097%=      5-min Rain = 0
KMES 151555Z 25002KT 04/03 A3021 RMK A01 T00390031  RH  096%=      5-min Rain = 0
KMES 151600Z 23002KT 04/03 A3021 RMK A01 T00410032  RH  095%=      5-min Rain = 0
KMES 151605Z 23002KT 04/03 A3022 RMK A01 T00430033  RH  095%=      5-min Rain = 0
KMES 151610Z 23003KT 05/03 A3022 RMK A01 T00450033  RH  094%=      5-min Rain = 0
KMES 151615Z 24002KT 05/03 A3022 RMK A01 T00460034  RH  093%=      5-min Rain = 0
KMES 151620Z 22002KT 05/03 A3022 RMK A01 T00470034  RH  093%=      5-min Rain = 0
KMES 151625Z 24001KT 05/04 A3022 RMK A01 T00490036  RH  093%=      5-min Rain = 0
KMES 151630Z 19002KT 05/04 A3022 RMK A01 T00520037  RH  092%=      5-min Rain = 0
KMES 151635Z 26001KT 06/04 A3022 RMK A01 T00550039  RH  091%=      5-min Rain = 0
KMES 151640Z 23002KT 06/04 A3022 RMK A01 T00570039  RH  090%=      5-min Rain = 0
KMES 151645Z 21002KT 06/04 A3022 RMK A01 T00580039  RH  089%=      5-min Rain = 0
KMES 151650Z 22002KT 06/04 A3022 RMK A01 T00600038  RH  088%=      5-min Rain = 0
KMES 151655Z 21003KT 06/04 A3022 RMK A01 T00620039  RH  087%=      5-min Rain = 0
KMES 151700Z 23003KT 06/04 A3022 RMK A01 T00630037  RH  085%=      5-min Rain = 0
KMES 151705Z 22002KT 07/04 A3022 RMK A01 T00660039  RH  084%=      5-min Rain = 0
KMES 151710Z 22003KT 07/04 A3021 RMK A01 T00680037  RH  082%=      5-min Rain = 0
KMES 151715Z 21004KT 07/04 A3021 RMK A01 T00690037  RH  081%=      5-min Rain = 0
KMES 151720Z 25003KT 07/04 A3021 RMK A01 T00700037  RH  081%=      5-min Rain = 0
KMES 151725Z 25004KT 07/04 A302 RMK A01 T00710036  RH  080%=      5-min Rain = 0
KMES 151730Z 21002KT 07/04 A302 RMK A01 T00700035  RH  080%=      5-min Rain = 0
KMES 151735Z 16002KT 07/04 A302 RMK A01 T00730037  RH  079%=      5-min Rain = 0
KMES 151740Z 17003KT 08/04 A302 RMK A01 T00750036  RH  077%=      5-min Rain = 0
KMES 151745Z 18003KT 08/04 A302 RMK A01 T00760035  RH  077%=      5-min Rain = 0
KMES 151750Z 19004KT 08/04 A3019 RMK A01 T00770036  RH  076%=      5-min Rain = 0
KMES 151755Z 18003KT 08/04 A3019 RMK A01 T00800036  RH  076%=      5-min Rain = 0
KMES 151800Z 16003KT 08/04 A3019 RMK A01 T00810036  RH  075%=      5-min Rain = 0
KMES 151805Z 20003KT 08/04 A3018 RMK A01 T00830037  RH  074%=      5-min Rain = 0
KMES 151810Z 21003KT 08/04 A3018 RMK A01 T00840037  RH  074%=      5-min Rain = 0
KMES 151815Z 18003KT 09/04 A3018 RMK A01 T00860039  RH  073%=      5-min Rain = 0
KMES 151820Z 19003KT 09/04 A3018 RMK A01 T00900039  RH  072%=      5-min Rain = 0
KMES 151825Z 18004KT 09/04 A3017 RMK A01 T00930039  RH  071%=      5-min Rain = 0
KMES 151830Z 18005G11KT 09/04 A3017 RMK A01 T00940039  RH  070%=      5-min Rain = 0
KMES 151835Z 22005KT 09/04 A3017 RMK A01 T00940039  RH  070%=      5-min Rain = 0
KMES 151840Z 20005KT 09/04 A3017 RMK A01 T00940040  RH  070%=      5-min Rain = 0
KMES 151845Z 22004KT 10/04 A3016 RMK A01 T00950040  RH  070%=      5-min Rain = 0
KMES 151850Z 22006KT 10/04 A3016 RMK A01 T00980041  RH  069%=      5-min Rain = 0
KMES 151855Z 22006KT 10/04 A3016 RMK A01 T00990041  RH  069%=      5-min Rain = 0
KMES 151900Z 21007KT 10/04 A3015 RMK A01 T01000040  RH  068%=      5-min Rain = 0
KMES 151905Z 21006KT 10/04 A3015 RMK A01 T01020043  RH  068%=      5-min Rain = 0
KMES 151910Z 21005KT 11/04 A3015 RMK A01 T01050041  RH  066%=      5-min Rain = 0
KMES 151915Z 23004KT 10/04 A3014 RMK A01 T01040042  RH  066%=      5-min Rain = 0
KMES 151920Z 21004KT 11/05 A3014 RMK A01 T01080045  RH  066%=      5-min Rain = 0
KMES 151925Z 17006KT 11/04 A3013 RMK A01 T01120044  RH  064%=      5-min Rain = 0
KMES 151930Z 15006KT 11/04 A3013 RMK A01 T01130043  RH  064%=      5-min Rain = 0
KMES 151935Z 17005KT 11/05 A3013 RMK A01 T01130045  RH  064%=      5-min Rain = 0
KMES 151940Z 13005KT 12/05 A3012 RMK A01 T01190047  RH  062%=      5-min Rain = 0
KMES 151945Z 15006KT 12/05 A3012 RMK A01 T01230047  RH  061%=      5-min Rain = 0
KMES 151950Z 17005KT 12/05 A3012 RMK A01 T01240046  RH  060%=      5-min Rain = 0
KMES 151955Z 19006KT 12/05 A3011 RMK A01 T01230046  RH  061%=      5-min Rain = 0
KMES 152000Z 18006KT 13/05 A3011 RMK A01 T01270047  RH  060%=      5-min Rain = 0
KMES 152005Z 19005KT 13/05 A3011 RMK A01 T01290046  RH  058%=      5-min Rain = 0
KMES 152010Z 17007KT 13/05 A3011 RMK A01 T01310046  RH  057%=      5-min Rain = 0
KMES 152015Z 16005KT 13/05 A301 RMK A01 T01340046  RH  056%=      5-min Rain = 0
KMES 152020Z 18006KT 13/04 A301 RMK A01 T01340044  RH  056%=      5-min Rain = 0
KMES 152025Z 17006KT 14/05 A301 RMK A01 T01350045  RH  056%=      5-min Rain = 0
KMES 152030Z 18005KT 14/04 A301 RMK A01 T01360044  RH  055%=      5-min Rain = 0
KMES 152035Z 17007KT 14/04 A301 RMK A01 T01360043  RH  055%=      5-min Rain = 0
KMES 152040Z 17005KT 14/04 A301 RMK A01 T01370044  RH  054%=      5-min Rain = 0
KMES 152045Z 19005KT 14/05 A3009 RMK A01 T01400045  RH  054%=      5-min Rain = 0
KMES 152050Z 17005KT 14/04 A3009 RMK A01 T01410044  RH  053%=      5-min Rain = 0
KMES 152055Z 12003G9KT 14/04 A3009 RMK A01 T01400044  RH  053%=      5-min Rain = 0
KMES 152100Z 16005G10KT 14/04 A3009 RMK A01 T01420044  RH  053%=      5-min Rain = 0
KMES 152105Z 17005KT 15/04 A3009 RMK A01 T01450044  RH  052%=      5-min Rain = 0
KMES 152110Z 17006KT 14/04 A3009 RMK A01 T01440044  RH  052%=      5-min Rain = 0
KMES 152115Z 15006KT 15/04 A3009 RMK A01 T01450043  RH  051%=      5-min Rain = 0
KMES 152120Z 16006KT 15/04 A3009 RMK A01 T01450043  RH  051%=      5-min Rain = 0
KMES 152125Z 14006KT 15/04 A3009 RMK A01 T01460043  RH  051%=      5-min Rain = 0
KMES 152130Z 15005KT 15/04 A3009 RMK A01 T01470042  RH  050%=      5-min Rain = 0
KMES 152135Z 16006KT 15/04 A3008 RMK A01 T01490043  RH  050%=      5-min Rain = 0
KMES 152140Z 17006KT 15/04 A3008 RMK A01 T01490042  RH  050%=      5-min Rain = 0
KMES 152145Z 13007KT 15/04 A3008 RMK A01 T01500043  RH  050%=      5-min Rain = 0
KMES 152150Z 14008KT 15/04 A3008 RMK A01 T01500043  RH  050%=      5-min Rain = 0
KMES 152155Z 14008KT 15/04 A3007 RMK A01 T01500043  RH  050%=      5-min Rain = 0
KMES 152200Z 14008KT 15/04 A3008 RMK A01 T01510044  RH  050%=      5-min Rain = 0
KMES 152205Z 14007KT 15/04 A3008 RMK A01 T01510043  RH  049%=      5-min Rain = 0
KMES 152210Z 14008KT 15/04 A3008 RMK A01 T01530043  RH  049%=      5-min Rain = 0
KMES 152215Z 14008G13KT 15/04 A3008 RMK A01 T01520043  RH  049%=      5-min Rain = 0
KMES 152220Z 15008KT 15/04 A3007 RMK A01 T01530043  RH  049%=      5-min Rain = 0
KMES 152225Z 15007KT 15/04 A3007 RMK A01 T01530043  RH  049%=      5-min Rain = 0
KMES 152230Z 15008KT 15/04 A3008 RMK A01 T01540043  RH  049%=      5-min Rain = 0
KMES 152235Z 14009KT 15/04 A3007 RMK A01 T01530043  RH  049%=      5-min Rain = 0
KMES 152240Z 15008KT 15/04 A3007 RMK A01 T01520042  RH  049%=      5-min Rain = 0
KMES 152245Z 15008KT 15/04 A3007 RMK A01 T01520042  RH  049%=      5-min Rain = 0
KMES 152250Z 14007KT 15/04 A3007 RMK A01 T01530043  RH  049%=      5-min Rain = 0
KMES 152255Z 14009KT 15/04 A3007 RMK A01 T01530043  RH  049%=      5-min Rain = 0
KMES 152300Z 14008KT 15/04 A3007 RMK A01 T01510043  RH  049%=      5-min Rain = 0
KMES 152305Z 13008KT 15/05 A3007 RMK A01 T01500045  RH  051%=      5-min Rain = 0
KMES 152310Z 12008KT 15/05 A3007 RMK A01 T01470046  RH  052%=      5-min Rain = 0
KMES 152315Z 12007KT 14/05 A3007 RMK A01 T01440046  RH  053%=      5-min Rain = 0
KMES 152320Z 12008KT 14/05 A3007 RMK A01 T01410046  RH  054%=      5-min Rain = 0
KMES 152325Z 12008KT 14/05 A3007 RMK A01 T01390046  RH  055%=      5-min Rain = 0
KMES 152330Z 12008KT 14/05 A3007 RMK A01 T01360046  RH  056%=      5-min Rain = 0
KMES 152335Z 12008KT 13/05 A3007 RMK A01 T01340046  RH  056%=      5-min Rain = 0
KMES 152340Z 12008KT 13/05 A3007 RMK A01 T01310046  RH  057%=      5-min Rain = 0
KMES 152345Z 13009KT 13/05 A3007 RMK A01 T01280046  RH  058%=      5-min Rain = 0
KMES 152350Z 12008KT 13/05 A3007 RMK A01 T01250045  RH  060%=      5-min Rain = 0
KMES 152355Z 12008KT 12/05 A3007 RMK A01 T01220045  RH  061%=      5-min Rain = 0
KMES 160000Z 12007KT 12/04 A3007 RMK A01 T01190044  RH  061%=      5-min Rain = 0
KMES 160005Z 12008KT 12/04 A3008 RMK A01 T01160044  RH  062%=      5-min Rain = 0
KMES 160010Z 12007KT 11/04 A3008 RMK A01 T01130043  RH  063%=      5-min Rain = 0
KMES 160015Z 12008KT 11/04 A3008 RMK A01 T01100043  RH  064%=      5-min Rain = 0
KMES 160020Z 12008KT 11/04 A3008 RMK A01 T01080043  RH  065%=      5-min Rain = 0
KMES 160025Z 12009KT 11/04 A3008 RMK A01 T01070042  RH  066%=      5-min Rain = 0
KMES 160030Z 12009KT 11/04 A3009 RMK A01 T01050043  RH  067%=      5-min Rain = 0
KMES 160035Z 12008KT 10/04 A3009 RMK A01 T01020042  RH  068%=      5-min Rain = 0
KMES 160040Z 12008KT 10/04 A3009 RMK A01 T00990042  RH  069%=      5-min Rain = 0
KMES 160045Z 13008KT 10/04 A3009 RMK A01 T00970042  RH  070%=      5-min Rain = 0
KMES 160050Z 12008KT 09/04 A3009 RMK A01 T00940042  RH  071%=      5-min Rain = 0
KMES 160055Z 12008KT 09/04 A3009 RMK A01 T00930041  RH  072%=      5-min Rain = 0
KMES 160100Z 12006KT 09/04 A301 RMK A01 T00910041  RH  072%=      5-min Rain = 0
KMES 160105Z 11005KT 09/04 A301 RMK A01 T00900040  RH  073%=      5-min Rain = 0
KMES 160110Z 10005KT 09/04 A301 RMK A01 T00880039  RH  073%=      5-min Rain = 0
KMES 160115Z 10006KT 09/04 A301 RMK A01 T00860040  RH  074%=      5-min Rain = 0
KMES 160120Z 11007KT 09/04 A301 RMK A01 T00860040  RH  074%=      5-min Rain = 0
KMES 160125Z 11008KT 09/04 A3009 RMK A01 T00850041  RH  075%=      5-min Rain = 0
KMES 160130Z 11007KT 08/04 A3009 RMK A01 T00840041  RH  076%=      5-min Rain = 0
KMES 160135Z 11007KT 08/04 A3009 RMK A01 T00830041  RH  076%=      5-min Rain = 0
KMES 160140Z 12007KT 08/04 A3009 RMK A01 T00820041  RH  077%=      5-min Rain = 0
KMES 160145Z 11007KT 08/04 A3009 RMK A01 T00810042  RH  078%=      5-min Rain = 0
KMES 160150Z 11007KT 08/04 A3009 RMK A01 T00810041  RH  078%=      5-min Rain = 0
KMES 160155Z 11007KT 08/04 A3009 RMK A01 T00800041  RH  078%=      5-min Rain = 0
KMES 160200Z 11006KT 08/04 A3009 RMK A01 T00780041  RH  079%=      5-min Rain = 0
KMES 160205Z 12006KT 08/04 A3009 RMK A01 T00770041  RH  079%=      5-min Rain = 0
KMES 160210Z 11006KT 08/04 A3009 RMK A01 T00750040  RH  080%=      5-min Rain = 0
KMES 160215Z 11006KT 07/04 A3009 RMK A01 T00740040  RH  081%=      5-min Rain = 0
KMES 160220Z 11006KT 07/04 A3009 RMK A01 T00730040  RH  081%=      5-min Rain = 0
KMES 160225Z 12006KT 07/04 A3009 RMK A01 T00720040  RH  082%=      5-min Rain = 0
KMES 160230Z 12006KT 07/04 A3009 RMK A01 T00700039  RH  082%=      5-min Rain = 0
KMES 160235Z 12005KT 07/04 A3009 RMK A01 T00680039  RH  083%=      5-min Rain = 0
KMES 160240Z 12004KT 07/04 A3009 RMK A01 T00670038  RH  083%=      5-min Rain = 0
KMES 160245Z 12003KT 07/04 A3009 RMK A01 T00650036  RH  083%=      5-min Rain = 0
KMES 160250Z 12003KT 06/04 A3009 RMK A01 T00630036  RH  084%=      5-min Rain = 0
KMES 160255Z 11004KT 06/04 A3009 RMK A01 T00620035  RH  085%=      5-min Rain = 0
KMES 160300Z 12003KT 06/04 A3009 RMK A01 T00600035  RH  085%=      5-min Rain = 0
KMES 160305Z 13003KT 06/04 A3009 RMK A01 T00600035  RH  086%=      5-min Rain = 0
KMES 160310Z 13003KT 06/04 A3009 RMK A01 T00600036  RH  086%=      5-min Rain = 0
KMES 160315Z 11002KT 06/04 A3009 RMK A01 T00590035  RH  086%=      5-min Rain = 0
KMES 160320Z 09003KT 06/03 A3009 RMK A01 T00570033  RH  086%=      5-min Rain = 0
KMES 160325Z 09003KT 05/03 A301 RMK A01 T00540031  RH  087%=      5-min Rain = 0
KMES 160330Z 10002KT 05/03 A3009 RMK A01 T00520030  RH  087%=      5-min Rain = 0
KMES 160335Z 10000KT 05/03 A3009 RMK A01 T00500030  RH  088%=      5-min Rain = 0
KMES 160340Z 05001KT 05/03 A301 RMK A01 T00500031  RH  089%=      5-min Rain = 0
KMES 160345Z 03001KT 05/03 A301 RMK A01 T00490030  RH  089%=      5-min Rain = 0
KMES 160350Z 07001KT 05/03 A3009 RMK A01 T00460027  RH  089%=      5-min Rain = 0
KMES 160355Z 09000KT 04/03 A301 RMK A01 T00440026  RH  090%=      5-min Rain = 0
KMES 160400Z 32000KT 04/02 A301 RMK A01 T00420024  RH  090%=      5-min Rain = 0
KMES 160405Z 32000KT 04/02 A301 RMK A01 T00390023  RH  091%=      5-min Rain = 0
KMES 160410Z 11000KT 04/02 A301 RMK A01 T00380023  RH  091%=      5-min Rain = 0
KMES 160415Z 16000KT 04/02 A301 RMK A01 T00370021  RH  091%=      5-min Rain = 0
KMES 160420Z 03000KT 03/02 A301 RMK A01 T00340019  RH  091%=      5-min Rain = 0
KMES 160425Z 07000KT 03/02 A301 RMK A01 T00290015  RH  092%=      5-min Rain = 0
KMES 160430Z 11001KT 03/01 A301 RMK A01 T00280014  RH  092%=      5-min Rain = 0
KMES 160435Z 14002KT 03/02 A301 RMK A01 T00330022  RH  094%=      5-min Rain = 0
KMES 160440Z 15003KT 03/02 A301 RMK A01 T00320020  RH  093%=      5-min Rain = 0
KMES 160445Z 14003KT 04/02 A301 RMK A01 T00360024  RH  094%=      5-min Rain = 0
KMES 160450Z 13003KT 03/02 A301 RMK A01 T00330020  RH  093%=      5-min Rain = 0
KMES 160455Z 12003KT 03/02 A301 RMK A01 T00280015  RH  093%=      5-min Rain = 0
KMES 160500Z 13003KT 03/02 A301 RMK A01 T00260015  RH  094%=      5-min Rain = 0
KMES 160505Z 14004KT 03/02 A301 RMK A01 T00280017  RH  094%=      5-min Rain = 0
KMES 160510Z 14004KT 03/02 A301 RMK A01 T00320023  RH  095%=      5-min Rain = 0
KMES 160515Z 15003KT 03/02 A301 RMK A01 T00340023  RH  094%=      5-min Rain = 0
KMES 160520Z 15003KT 03/02 A301 RMK A01 T00320021  RH  094%=      5-min Rain = 0
KMES 160525Z 15003KT 03/02 A301 RMK A01 T00330024  RH  095%=      5-min Rain = 0
KMES 160530Z 15001KT 03/02 A301 RMK A01 T00310020  RH  094%=      5-min Rain = 0
KMES 160535Z 14001KT 03/02 A301 RMK A01 T00290020  RH  095%=      5-min Rain = 0
KMES 160540Z 13000KT 03/02 A3009 RMK A01 T00290020  RH  095%=      5-min Rain = 0
KMES 160545Z 00000KT 03/02 A3009 RMK A01 T00320023  RH  096%=      5-min Rain = 0
KMES 160550Z 00000KT 03/02 A3009 RMK A01 T00310023  RH  095%=      5-min Rain = 0
KMES 160555Z 00000KT 03/02 A3009 RMK A01 T00290020  RH  095%=      5-min Rain = 0

Page generated in 0.0092 seconds.